sensor_id;sensor_type;location;lat;lon;timestamp;temperature;humidity
16287;DHT22;8251;53.568;10.018;2024-03-23T00:55:15;11.00;90.40
16287;DHT22;8251;53.568;10.018;2024-03-23T00:57:42;11.00;90.50
16287;DHT22;8251;53.568;10.018;2024-03-23T01:00:08;11.00;90.70
16287;DHT22;8251;53.568;10.018;2024-03-23T01:02:36;11.00;90.40
16287;DHT22;8251;53.568;10.018;2024-03-23T01:05:02;11.10;90.50
16287;DHT22;8251;53.568;10.018;2024-03-23T01:07:29;11.10;90.40
16287;DHT22;8251;53.568;10.018;2024-03-23T01:09:55;11.10;90.40
16287;DHT22;8251;53.568;10.018;2024-03-23T01:12:24;11.10;90.30
16287;DHT22;8251;53.568;10.018;2024-03-23T01:14:50;11.00;90.20
16287;DHT22;8251;53.568;10.018;2024-03-23T01:17:17;11.00;90.20
16287;DHT22;8251;53.568;10.018;2024-03-23T01:19:42;11.00;90.30
16287;DHT22;8251;53.568;10.018;2024-03-23T01:22:10;10.90;90.40
16287;DHT22;8251;53.568;10.018;2024-03-23T01:24:36;10.90;90.30
16287;DHT22;8251;53.568;10.018;2024-03-23T01:27:03;10.90;90.50
16287;DHT22;8251;53.568;10.018;2024-03-23T01:29:30;10.80;90.70
16287;DHT22;8251;53.568;10.018;2024-03-23T01:31:58;10.80;90.90
16287;DHT22;8251;53.568;10.018;2024-03-23T01:34:23;10.80;90.80
16287;DHT22;8251;53.568;10.018;2024-03-23T01:36:51;10.80;90.80
16287;DHT22;8251;53.568;10.018;2024-03-23T01:39:17;10.80;90.90
16287;DHT22;8251;53.568;10.018;2024-03-23T01:41:44;10.80;90.90
16287;DHT22;8251;53.568;10.018;2024-03-23T01:44:10;10.70;90.90
16287;DHT22;8251;53.568;10.018;2024-03-23T01:46:39;10.70;90.90
16287;DHT22;8251;53.568;10.018;2024-03-23T01:49:07;10.80;90.90
16287;DHT22;8251;53.568;10.018;2024-03-23T01:51:35;10.80;90.90
16287;DHT22;8251;53.568;10.018;2024-03-23T01:54:03;10.70;90.90
16287;DHT22;8251;53.568;10.018;2024-03-23T01:56:31;10.60;90.90
16287;DHT22;8251;53.568;10.018;2024-03-23T01:58:58;10.60;91.00
16287;DHT22;8251;53.568;10.018;2024-03-23T02:01:26;10.70;91.10
16287;DHT22;8251;53.568;10.018;2024-03-23T02:03:53;10.60;91.00
16287;DHT22;8251;53.568;10.018;2024-03-23T02:06:20;10.60;91.20
16287;DHT22;8251;53.568;10.018;2024-03-23T02:08:47;10.60;91.00
16287;DHT22;8251;53.568;10.018;2024-03-23T02:11:14;10.50;91.40
16287;DHT22;8251;53.568;10.018;2024-03-23T02:13:40;10.50;91.20
16287;DHT22;8251;53.568;10.018;2024-03-23T02:16:07;10.60;91.20
16287;DHT22;8251;53.568;10.018;2024-03-23T02:18:34;10.60;91.20
16287;DHT22;8251;53.568;10.018;2024-03-23T02:21:03;10.60;91.20
16287;DHT22;8251;53.568;10.018;2024-03-23T02:23:30;10.60;91.20
16287;DHT22;8251;53.568;10.018;2024-03-23T02:25:57;10.70;91.10
16287;DHT22;8251;53.568;10.018;2024-03-23T02:28:23;10.60;91.10
16287;DHT22;8251;53.568;10.018;2024-03-23T02:30:50;10.70;91.00
16287;DHT22;8251;53.568;10.018;2024-03-23T02:33:16;10.60;90.90
16287;DHT22;8251;53.568;10.018;2024-03-23T02:35:44;10.60;91.00
16287;DHT22;8251;53.568;10.018;2024-03-23T02:38:10;10.60;91.10
16287;DHT22;8251;53.568;10.018;2024-03-23T02:40:39;10.60;90.90
16287;DHT22;8251;53.568;10.018;2024-03-23T02:43:05;10.60;91.10
16287;DHT22;8251;53.568;10.018;2024-03-23T02:45:32;10.50;91.10
16287;DHT22;8251;53.568;10.018;2024-03-23T02:47:58;10.50;91.30
16287;DHT22;8251;53.568;10.018;2024-03-23T02:50:25;10.50;91.20
16287;DHT22;8251;53.568;10.018;2024-03-23T02:52:51;10.50;91.20
16287;DHT22;8251;53.568;10.018;2024-03-23T02:55:18;10.50;91.20
16287;DHT22;8251;53.568;10.018;2024-03-23T02:57:46;10.40;91.20
16287;DHT22;8251;53.568;10.018;2024-03-23T03:00:13;10.40;91.20
16287;DHT22;8251;53.568;10.018;2024-03-23T03:02:39;10.40;91.20
16287;DHT22;8251;53.568;10.018;2024-03-23T03:05:06;10.30;91.30
16287;DHT22;8251;53.568;10.018;2024-03-23T03:07:34;10.30;91.30
16287;DHT22;8251;53.568;10.018;2024-03-23T03:10:01;10.30;91.50
16287;DHT22;8251;53.568;10.018;2024-03-23T03:12:27;10.30;91.50
16287;DHT22;8251;53.568;10.018;2024-03-23T03:14:55;10.30;91.80
16287;DHT22;8251;53.568;10.018;2024-03-23T03:17:21;10.30;91.30
16287;DHT22;8251;53.568;10.018;2024-03-23T03:19:49;10.30;91.30
16287;DHT22;8251;53.568;10.018;2024-03-23T03:22:15;10.30;91.20
16287;DHT22;8251;53.568;10.018;2024-03-23T03:24:42;10.30;91.40
16287;DHT22;8251;53.568;10.018;2024-03-23T03:27:08;10.30;91.40
16287;DHT22;8251;53.568;10.018;2024-03-23T03:29:36;10.40;91.40
16287;DHT22;8251;53.568;10.018;2024-03-23T03:32:04;10.30;91.20
16287;DHT22;8251;53.568;10.018;2024-03-23T03:34:30;10.40;91.20
16287;DHT22;8251;53.568;10.018;2024-03-23T03:36:57;10.30;91.20
16287;DHT22;8251;53.568;10.018;2024-03-23T03:39:24;10.30;91.20
16287;DHT22;8251;53.568;10.018;2024-03-23T03:41:50;10.30;91.30
16287;DHT22;8251;53.568;10.018;2024-03-23T03:44:17;10.30;91.30
16287;DHT22;8251;53.568;10.018;2024-03-23T03:46:43;10.40;91.30
16287;DHT22;8251;53.568;10.018;2024-03-23T03:49:11;10.40;91.20
16287;DHT22;8251;53.568;10.018;2024-03-23T03:51:37;10.50;91.20
16287;DHT22;8251;53.568;10.018;2024-03-23T03:54:04;10.40;91.10
16287;DHT22;8251;53.568;10.018;2024-03-23T03:56:30;10.40;90.90
16287;DHT22;8251;53.568;10.018;2024-03-23T03:58:57;10.40;91.00
16287;DHT22;8251;53.568;10.018;2024-03-23T04:01:23;10.50;91.00
16287;DHT22;8251;53.568;10.018;2024-03-23T04:03:50;10.50;91.00
16287;DHT22;8251;53.568;10.018;2024-03-23T04:06:20;10.50;90.90
16287;DHT22;8251;53.568;10.018;2024-03-23T04:08:47;10.50;90.80
16287;DHT22;8251;53.568;10.018;2024-03-23T04:11:13;10.50;90.80
16287;DHT22;8251;53.568;10.018;2024-03-23T04:13:41;10.50;90.80
16287;DHT22;8251;53.568;10.018;2024-03-23T04:16:07;10.50;90.80
16287;DHT22;8251;53.568;10.018;2024-03-23T04:18:35;10.40;90.80
16287;DHT22;8251;53.568;10.018;2024-03-23T04:21:01;10.30;90.80
16287;DHT22;8251;53.568;10.018;2024-03-23T04:23:30;10.30;90.80
16287;DHT22;8251;53.568;10.018;2024-03-23T04:25:56;10.30;90.80
16287;DHT22;8251;53.568;10.018;2024-03-23T04:28:28;10.20;90.90
16287;DHT22;8251;53.568;10.018;2024-03-23T04:30:56;10.20;91.00
16287;DHT22;8251;53.568;10.018;2024-03-23T04:33:23;10.30;91.00
16287;DHT22;8251;53.568;10.018;2024-03-23T04:35:49;10.30;91.00
16287;DHT22;8251;53.568;10.018;2024-03-23T04:38:16;10.30;91.00
16287;DHT22;8251;53.568;10.018;2024-03-23T04:40:45;10.30;90.80
16287;DHT22;8251;53.568;10.018;2024-03-23T04:43:12;10.30;90.90
16287;DHT22;8251;53.568;10.018;2024-03-23T04:45:39;10.30;90.80
16287;DHT22;8251;53.568;10.018;2024-03-23T04:48:07;10.20;90.90
16287;DHT22;8251;53.568;10.018;2024-03-23T04:50:34;10.10;90.90
16287;DHT22;8251;53.568;10.018;2024-03-23T04:53:01;10.00;91.10
16287;DHT22;8251;53.568;10.018;2024-03-23T04:55:28;9.90;91.30
16287;DHT22;8251;53.568;10.018;2024-03-23T04:57:56;9.90;91.40
16287;DHT22;8251;53.568;10.018;2024-03-23T05:00:23;9.80;91.40
16287;DHT22;8251;53.568;10.018;2024-03-23T05:02:50;9.90;91.50
16287;DHT22;8251;53.568;10.018;2024-03-23T05:05:19;9.90;91.50
16287;DHT22;8251;53.568;10.018;2024-03-23T05:07:44;9.90;91.30
16287;DHT22;8251;53.568;10.018;2024-03-23T05:10:12;10.00;91.40
16287;DHT22;8251;53.568;10.018;2024-03-23T05:12:39;9.90;91.30
16287;DHT22;8251;53.568;10.018;2024-03-23T05:15:07;9.90;91.10
16287;DHT22;8251;53.568;10.018;2024-03-23T05:17:34;9.90;91.20
16287;DHT22;8251;53.568;10.018;2024-03-23T05:20:01;9.90;91.20
16287;DHT22;8251;53.568;10.018;2024-03-23T05:22:28;9.80;91.20
16287;DHT22;8251;53.568;10.018;2024-03-23T05:24:56;9.80;91.30
16287;DHT22;8251;53.568;10.018;2024-03-23T05:27:22;9.80;91.50
16287;DHT22;8251;53.568;10.018;2024-03-23T05:29:49;9.80;91.40
16287;DHT22;8251;53.568;10.018;2024-03-23T05:32:16;9.90;91.40
16287;DHT22;8251;53.568;10.018;2024-03-23T05:34:44;9.90;91.40
16287;DHT22;8251;53.568;10.018;2024-03-23T05:37:10;9.90;91.20
16287;DHT22;8251;53.568;10.018;2024-03-23T05:39:37;9.90;91.10
16287;DHT22;8251;53.568;10.018;2024-03-23T05:42:03;9.80;90.70
16287;DHT22;8251;53.568;10.018;2024-03-23T05:44:30;9.80;91.00
16287;DHT22;8251;53.568;10.018;2024-03-23T05:46:57;9.90;91.20
16287;DHT22;8251;53.568;10.018;2024-03-23T05:49:25;9.80;91.10
16287;DHT22;8251;53.568;10.018;2024-03-23T05:51:51;9.90;91.00
16287;DHT22;8251;53.568;10.018;2024-03-23T05:54:20;9.80;90.90
16287;DHT22;8251;53.568;10.018;2024-03-23T05:56:46;9.90;91.00
16287;DHT22;8251;53.568;10.018;2024-03-23T05:59:13;10.00;90.90
16287;DHT22;8251;53.568;10.018;2024-03-23T06:01:39;10.00;90.80
16287;DHT22;8251;53.568;10.018;2024-03-23T06:04:06;10.00;90.60
16287;DHT22;8251;53.568;10.018;2024-03-23T06:06:33;10.00;90.50
16287;DHT22;8251;53.568;10.018;2024-03-23T06:09:00;10.00;90.60
16287;DHT22;8251;53.568;10.018;2024-03-23T06:11:26;10.00;90.60
16287;DHT22;8251;53.568;10.018;2024-03-23T06:13:53;10.00;90.70
16287;DHT22;8251;53.568;10.018;2024-03-23T06:16:19;10.00;90.60
16287;DHT22;8251;53.568;10.018;2024-03-23T06:18:49;10.00;90.70
16287;DHT22;8251;53.568;10.018;2024-03-23T06:21:15;10.00;90.80
16287;DHT22;8251;53.568;10.018;2024-03-23T06:23:43;10.00;90.80
16287;DHT22;8251;53.568;10.018;2024-03-23T06:26:13;10.10;90.70
16287;DHT22;8251;53.568;10.018;2024-03-23T06:28:40;10.10;90.60
16287;DHT22;8251;53.568;10.018;2024-03-23T06:31:09;10.20;90.60
16287;DHT22;8251;53.568;10.018;2024-03-23T06:33:36;10.30;90.60
16287;DHT22;8251;53.568;10.018;2024-03-23T06:36:02;10.30;90.50
16287;DHT22;8251;53.568;10.018;2024-03-23T06:38:29;10.20;90.30
16287;DHT22;8251;53.568;10.018;2024-03-23T06:40:56;10.30;90.40
16287;DHT22;8251;53.568;10.018;2024-03-23T06:43:23;10.30;90.30
16287;DHT22;8251;53.568;10.018;2024-03-23T06:45:52;10.30;90.30
16287;DHT22;8251;53.568;10.018;2024-03-23T06:48:19;10.50;90.20
16287;DHT22;8251;53.568;10.018;2024-03-23T06:50:46;10.50;89.90
16287;DHT22;8251;53.568;10.018;2024-03-23T06:53:13;10.40;89.50
16287;DHT22;8251;53.568;10.018;2024-03-23T06:55:39;10.50;90.00
16287;DHT22;8251;53.568;10.018;2024-03-23T06:58:08;10.50;89.70
16287;DHT22;8251;53.568;10.018;2024-03-23T07:00:34;10.50;90.00
16287;DHT22;8251;53.568;10.018;2024-03-23T07:03:02;10.50;89.80
16287;DHT22;8251;53.568;10.018;2024-03-23T07:05:29;10.60;89.10
16287;DHT22;8251;53.568;10.018;2024-03-23T07:07:56;10.60;88.60
16287;DHT22;8251;53.568;10.018;2024-03-23T07:10:22;10.60;89.20
16287;DHT22;8251;53.568;10.018;2024-03-23T07:12:49;10.50;89.30
16287;DHT22;8251;53.568;10.018;2024-03-23T07:15:16;10.50;89.00
16287;DHT22;8251;53.568;10.018;2024-03-23T07:17:46;10.60;89.10
16287;DHT22;8251;53.568;10.018;2024-03-23T07:20:13;10.80;88.50
16287;DHT22;8251;53.568;10.018;2024-03-23T07:22:40;11.10;88.20
16287;DHT22;8251;53.568;10.018;2024-03-23T07:25:06;11.40;88.10
16287;DHT22;8251;53.568;10.018;2024-03-23T07:27:33;11.90;85.00
16287;DHT22;8251;53.568;10.018;2024-03-23T07:29:59;12.20;84.70
16287;DHT22;8251;53.568;10.018;2024-03-23T07:32:28;12.50;83.90
16287;DHT22;8251;53.568;10.018;2024-03-23T07:34:54;12.70;82.20
16287;DHT22;8251;53.568;10.018;2024-03-23T07:37:21;12.60;81.50
16287;DHT22;8251;53.568;10.018;2024-03-23T07:39:47;12.60;81.40
16287;DHT22;8251;53.568;10.018;2024-03-23T07:42:14;12.60;80.70
16287;DHT22;8251;53.568;10.018;2024-03-23T07:44:40;12.60;80.90
16287;DHT22;8251;53.568;10.018;2024-03-23T07:47:07;12.40;81.00
16287;DHT22;8251;53.568;10.018;2024-03-23T07:49:35;12.50;82.40
16287;DHT22;8251;53.568;10.018;2024-03-23T07:52:02;12.70;81.80
16287;DHT22;8251;53.568;10.018;2024-03-23T07:54:28;12.80;81.40
16287;DHT22;8251;53.568;10.018;2024-03-23T07:56:54;13.00;80.00
16287;DHT22;8251;53.568;10.018;2024-03-23T07:59:20;13.30;79.80
16287;DHT22;8251;53.568;10.018;2024-03-23T08:01:47;13.80;78.40
16287;DHT22;8251;53.568;10.018;2024-03-23T08:04:19;14.10;76.30
16287;DHT22;8251;53.568;10.018;2024-03-23T08:06:47;14.60;76.30
16287;DHT22;8251;53.568;10.018;2024-03-23T08:09:13;15.20;75.10
16287;DHT22;8251;53.568;10.018;2024-03-23T08:11:40;15.80;74.30
16287;DHT22;8251;53.568;10.018;2024-03-23T08:14:07;16.20;71.50
16287;DHT22;8251;53.568;10.018;2024-03-23T08:16:34;16.30;69.60
16287;DHT22;8251;53.568;10.018;2024-03-23T08:19:00;16.50;70.00
16287;DHT22;8251;53.568;10.018;2024-03-23T08:21:28;16.80;69.50
16287;DHT22;8251;53.568;10.018;2024-03-23T08:23:56;17.10;68.50
16287;DHT22;8251;53.568;10.018;2024-03-23T08:26:23;17.30;65.10
16287;DHT22;8251;53.568;10.018;2024-03-23T08:28:48;17.30;64.80
16287;DHT22;8251;53.568;10.018;2024-03-23T08:31:15;17.10;64.70
16287;DHT22;8251;53.568;10.018;2024-03-23T08:33:41;16.80;66.40
16287;DHT22;8251;53.568;10.018;2024-03-23T08:36:10;17.20;67.10
16287;DHT22;8251;53.568;10.018;2024-03-23T08:38:38;17.40;64.70
16287;DHT22;8251;53.568;10.018;2024-03-23T08:41:07;17.20;65.10
16287;DHT22;8251;53.568;10.018;2024-03-23T08:43:35;17.30;63.40
16287;DHT22;8251;53.568;10.018;2024-03-23T08:46:06;17.00;64.20
16287;DHT22;8251;53.568;10.018;2024-03-23T08:48:34;16.70;66.40
16287;DHT22;8251;53.568;10.018;2024-03-23T08:51:01;17.50;65.50
16287;DHT22;8251;53.568;10.018;2024-03-23T08:53:28;17.80;62.40
16287;DHT22;8251;53.568;10.018;2024-03-23T08:55:55;18.10;61.50
16287;DHT22;8251;53.568;10.018;2024-03-23T08:58:23;18.50;60.90
16287;DHT22;8251;53.568;10.018;2024-03-23T09:00:51;18.70;59.40
16287;DHT22;8251;53.568;10.018;2024-03-23T09:03:17;18.50;59.60
16287;DHT22;8251;53.568;10.018;2024-03-23T09:05:44;18.10;59.40
16287;DHT22;8251;53.568;10.018;2024-03-23T09:08:10;17.60;60.60
16287;DHT22;8251;53.568;10.018;2024-03-23T09:10:39;17.30;60.30
16287;DHT22;8251;53.568;10.018;2024-03-23T09:13:05;17.30;61.60
16287;DHT22;8251;53.568;10.018;2024-03-23T09:15:34;17.30;61.30
16287;DHT22;8251;53.568;10.018;2024-03-23T09:18:00;17.70;61.60
16287;DHT22;8251;53.568;10.018;2024-03-23T09:20:27;17.60;60.10
16287;DHT22;8251;53.568;10.018;2024-03-23T09:22:54;17.50;59.80
16287;DHT22;8251;53.568;10.018;2024-03-23T09:25:20;16.80;60.50
16287;DHT22;8251;53.568;10.018;2024-03-23T09:27:47;16.20;61.40
16287;DHT22;8251;53.568;10.018;2024-03-23T09:30:14;15.70;63.00
16287;DHT22;8251;53.568;10.018;2024-03-23T09:32:44;15.50;63.10
16287;DHT22;8251;53.568;10.018;2024-03-23T09:35:10;14.90;64.30
16287;DHT22;8251;53.568;10.018;2024-03-23T09:37:37;14.50;65.80
16287;DHT22;8251;53.568;10.018;2024-03-23T09:40:06;14.40;67.20
16287;DHT22;8251;53.568;10.018;2024-03-23T09:42:36;14.70;68.10
16287;DHT22;8251;53.568;10.018;2024-03-23T09:45:05;14.90;65.90
16287;DHT22;8251;53.568;10.018;2024-03-23T09:47:35;14.60;66.20
16287;DHT22;8251;53.568;10.018;2024-03-23T09:50:03;14.10;65.10
16287;DHT22;8251;53.568;10.018;2024-03-23T09:52:31;13.70;65.20
16287;DHT22;8251;53.568;10.018;2024-03-23T09:54:57;13.30;67.50
16287;DHT22;8251;53.568;10.018;2024-03-23T09:57:24;13.40;69.50
16287;DHT22;8251;53.568;10.018;2024-03-23T09:59:52;13.50;69.10
16287;DHT22;8251;53.568;10.018;2024-03-23T10:02:21;13.60;69.60
16287;DHT22;8251;53.568;10.018;2024-03-23T10:04:47;13.70;69.50
16287;DHT22;8251;53.568;10.018;2024-03-23T10:07:18;13.60;68.50
16287;DHT22;8251;53.568;10.018;2024-03-23T10:09:44;13.40;68.90
16287;DHT22;8251;53.568;10.018;2024-03-23T10:12:12;13.30;70.70
16287;DHT22;8251;53.568;10.018;2024-03-23T10:14:39;13.50;72.00
16287;DHT22;8251;53.568;10.018;2024-03-23T10:17:15;13.80;72.60
16287;DHT22;8251;53.568;10.018;2024-03-23T10:19:43;14.00;71.40
16287;DHT22;8251;53.568;10.018;2024-03-23T10:22:17;14.00;71.40
16287;DHT22;8251;53.568;10.018;2024-03-23T10:24:43;14.50;71.50
16287;DHT22;8251;53.568;10.018;2024-03-23T10:27:15;14.70;67.20
16287;DHT22;8251;53.568;10.018;2024-03-23T10:29:42;15.00;66.60
16287;DHT22;8251;53.568;10.018;2024-03-23T10:32:10;15.10;66.20
16287;DHT22;8251;53.568;10.018;2024-03-23T10:34:36;15.00;65.90
16287;DHT22;8251;53.568;10.018;2024-03-23T10:37:04;14.90;66.10
16287;DHT22;8251;53.568;10.018;2024-03-23T10:39:33;14.60;66.10
16287;DHT22;8251;53.568;10.018;2024-03-23T10:42:03;14.50;67.10
16287;DHT22;8251;53.568;10.018;2024-03-23T10:44:29;14.00;68.60
16287;DHT22;8251;53.568;10.018;2024-03-23T10:46:57;13.00;71.70
16287;DHT22;8251;53.568;10.018;2024-03-23T10:49:26;12.60;73.30
16287;DHT22;8251;53.568;10.018;2024-03-23T10:51:59;12.40;74.50
16287;DHT22;8251;53.568;10.018;2024-03-23T10:54:26;12.30;76.20
16287;DHT22;8251;53.568;10.018;2024-03-23T10:56:57;12.20;76.50
16287;DHT22;8251;53.568;10.018;2024-03-23T10:59:25;12.10;77.10
16287;DHT22;8251;53.568;10.018;2024-03-23T11:01:56;12.30;77.50
16287;DHT22;8251;53.568;10.018;2024-03-23T11:04:35;12.10;77.70
16287;DHT22;8251;53.568;10.018;2024-03-23T11:07:30;12.00;78.20
16287;DHT22;8251;53.568;10.018;2024-03-23T11:09:57;11.90;79.20
16287;DHT22;8251;53.568;10.018;2024-03-23T11:12:33;11.90;79.30
16287;DHT22;8251;53.568;10.018;2024-03-23T11:15:02;12.20;80.00
16287;DHT22;8251;53.568;10.018;2024-03-23T11:17:30;12.50;78.70
16287;DHT22;8251;53.568;10.018;2024-03-23T11:19:57;12.90;77.30
16287;DHT22;8251;53.568;10.018;2024-03-23T11:22:41;12.90;74.40
16287;DHT22;8251;53.568;10.018;2024-03-23T11:25:15;13.30;76.00
16287;DHT22;8251;53.568;10.018;2024-03-23T11:27:45;13.60;73.40
16287;DHT22;8251;53.568;10.018;2024-03-23T11:30:16;13.50;72.00
16287;DHT22;8251;53.568;10.018;2024-03-23T11:32:45;13.80;71.00
16287;DHT22;8251;53.568;10.018;2024-03-23T11:35:25;13.80;70.60
16287;DHT22;8251;53.568;10.018;2024-03-23T11:38:08;13.60;69.30
16287;DHT22;8251;53.568;10.018;2024-03-23T11:40:35;13.60;69.90
16287;DHT22;8251;53.568;10.018;2024-03-23T11:43:05;13.90;70.40
16287;DHT22;8251;53.568;10.018;2024-03-23T11:45:34;14.00;68.90
16287;DHT22;8251;53.568;10.018;2024-03-23T11:48:05;13.90;67.90
16287;DHT22;8251;53.568;10.018;2024-03-23T11:50:32;14.30;69.60
16287;DHT22;8251;53.568;10.018;2024-03-23T11:53:13;14.70;70.10
16287;DHT22;8251;53.568;10.018;2024-03-23T11:55:47;14.80;66.40
16287;DHT22;8251;53.568;10.018;2024-03-23T11:58:17;14.80;64.90
16287;DHT22;8251;53.568;10.018;2024-03-23T12:00:49;15.10;67.10
16287;DHT22;8251;53.568;10.018;2024-03-23T12:03:17;15.30;65.60
16287;DHT22;8251;53.568;10.018;2024-03-23T12:05:48;15.20;63.90
16287;DHT22;8251;53.568;10.018;2024-03-23T12:08:19;15.10;63.80
16287;DHT22;8251;53.568;10.018;2024-03-23T12:10:48;14.80;59.50
16287;DHT22;8251;53.568;10.018;2024-03-23T12:13:17;14.40;63.30
16287;DHT22;8251;53.568;10.018;2024-03-23T12:15:44;14.00;65.00
16287;DHT22;8251;53.568;10.018;2024-03-23T12:18:12;13.70;66.70
16287;DHT22;8251;53.568;10.018;2024-03-23T12:20:39;13.40;66.90
16287;DHT22;8251;53.568;10.018;2024-03-23T12:23:10;13.40;68.10
16287;DHT22;8251;53.568;10.018;2024-03-23T12:25:37;13.30;67.20
16287;DHT22;8251;53.568;10.018;2024-03-23T12:28:04;13.20;66.10
16287;DHT22;8251;53.568;10.018;2024-03-23T12:30:34;13.10;65.70
16287;DHT22;8251;53.568;10.018;2024-03-23T12:33:01;13.00;67.40
16287;DHT22;8251;53.568;10.018;2024-03-23T12:35:28;13.10;68.00
16287;DHT22;8251;53.568;10.018;2024-03-23T12:37:54;13.20;68.80
16287;DHT22;8251;53.568;10.018;2024-03-23T12:40:21;13.20;66.80
16287;DHT22;8251;53.568;10.018;2024-03-23T12:42:48;13.00;69.20
16287;DHT22;8251;53.568;10.018;2024-03-23T12:45:14;12.80;71.90
16287;DHT22;8251;53.568;10.018;2024-03-23T12:47:42;12.30;71.40
16287;DHT22;8251;53.568;10.018;2024-03-23T12:50:09;12.00;72.80
16287;DHT22;8251;53.568;10.018;2024-03-23T12:52:37;11.70;73.90
16287;DHT22;8251;53.568;10.018;2024-03-23T12:55:03;11.40;74.70
16287;DHT22;8251;53.568;10.018;2024-03-23T12:57:31;11.30;76.30
16287;DHT22;8251;53.568;10.018;2024-03-23T12:59:58;11.00;74.90
16287;DHT22;8251;53.568;10.018;2024-03-23T13:02:25;10.90;75.90
16287;DHT22;8251;53.568;10.018;2024-03-23T13:04:53;10.90;76.10
16287;DHT22;8251;53.568;10.018;2024-03-23T13:07:21;10.70;76.00
16287;DHT22;8251;53.568;10.018;2024-03-23T13:09:49;10.70;76.70
16287;DHT22;8251;53.568;10.018;2024-03-23T13:12:16;10.70;77.60
16287;DHT22;8251;53.568;10.018;2024-03-23T13:14:44;10.70;78.90
16287;DHT22;8251;53.568;10.018;2024-03-23T13:17:11;10.70;78.50
16287;DHT22;8251;53.568;10.018;2024-03-23T13:19:37;10.60;78.50
16287;DHT22;8251;53.568;10.018;2024-03-23T13:22:06;10.50;79.10
16287;DHT22;8251;53.568;10.018;2024-03-23T13:24:32;10.50;78.70
16287;DHT22;8251;53.568;10.018;2024-03-23T13:26:59;10.60;79.60
16287;DHT22;8251;53.568;10.018;2024-03-23T13:29:25;10.80;79.60
16287;DHT22;8251;53.568;10.018;2024-03-23T13:31:52;10.70;80.00
16287;DHT22;8251;53.568;10.018;2024-03-23T13:34:19;10.70;79.20
16287;DHT22;8251;53.568;10.018;2024-03-23T13:36:46;10.70;78.70
16287;DHT22;8251;53.568;10.018;2024-03-23T13:39:14;10.60;78.60
16287;DHT22;8251;53.568;10.018;2024-03-23T13:41:42;10.50;80.10
16287;DHT22;8251;53.568;10.018;2024-03-23T13:44:09;10.50;81.40
16287;DHT22;8251;53.568;10.018;2024-03-23T13:46:37;10.60;83.10
16287;DHT22;8251;53.568;10.018;2024-03-23T13:49:04;10.50;81.40
16287;DHT22;8251;53.568;10.018;2024-03-23T13:51:32;10.60;80.80
16287;DHT22;8251;53.568;10.018;2024-03-23T13:53:58;10.60;81.80
16287;DHT22;8251;53.568;10.018;2024-03-23T13:56:28;10.70;82.30
16287;DHT22;8251;53.568;10.018;2024-03-23T13:58:55;10.50;81.30
16287;DHT22;8251;53.568;10.018;2024-03-23T14:01:23;10.60;81.10
16287;DHT22;8251;53.568;10.018;2024-03-23T14:03:50;10.60;81.70
16287;DHT22;8251;53.568;10.018;2024-03-23T14:06:17;10.60;80.10
16287;DHT22;8251;53.568;10.018;2024-03-23T14:08:43;10.50;79.40
16287;DHT22;8251;53.568;10.018;2024-03-23T14:11:10;10.70;81.00
16287;DHT22;8251;53.568;10.018;2024-03-23T14:13:38;10.70;80.50
16287;DHT22;8251;53.568;10.018;2024-03-23T14:16:06;10.90;80.60
16287;DHT22;8251;53.568;10.018;2024-03-23T14:18:32;10.90;78.80
16287;DHT22;8251;53.568;10.018;2024-03-23T14:21:00;10.90;78.50
16287;DHT22;8251;53.568;10.018;2024-03-23T14:23:27;10.80;78.60
16287;DHT22;8251;53.568;10.018;2024-03-23T14:25:55;10.90;79.20
16287;DHT22;8251;53.568;10.018;2024-03-23T14:28:22;11.00;78.90
16287;DHT22;8251;53.568;10.018;2024-03-23T14:30:51;11.30;78.40
16287;DHT22;8251;53.568;10.018;2024-03-23T14:33:17;11.40;76.60
16287;DHT22;8251;53.568;10.018;2024-03-23T14:35:51;11.20;76.60
16287;DHT22;8251;53.568;10.018;2024-03-23T14:38:18;11.20;76.40
16287;DHT22;8251;53.568;10.018;2024-03-23T14:40:45;11.10;76.40
16287;DHT22;8251;53.568;10.018;2024-03-23T14:43:11;11.00;76.00
16287;DHT22;8251;53.568;10.018;2024-03-23T14:48:31;11.20;77.40
16287;DHT22;8251;53.568;10.018;2024-03-23T14:50:58;11.30;76.50
16287;DHT22;8251;53.568;10.018;2024-03-23T14:53:25;11.40;75.90
16287;DHT22;8251;53.568;10.018;2024-03-23T14:55:54;11.50;75.80
16287;DHT22;8251;53.568;10.018;2024-03-23T14:58:20;11.40;74.10
16287;DHT22;8251;53.568;10.018;2024-03-23T15:00:48;11.30;76.20
16287;DHT22;8251;53.568;10.018;2024-03-23T15:03:14;11.00;81.00
16287;DHT22;8251;53.568;10.018;2024-03-23T15:05:52;10.50;83.30
16287;DHT22;8251;53.568;10.018;2024-03-23T15:08:18;10.30;83.80
16287;DHT22;8251;53.568;10.018;2024-03-23T15:10:49;10.30;84.20
16287;DHT22;8251;53.568;10.018;2024-03-23T15:13:15;10.30;83.60
16287;DHT22;8251;53.568;10.018;2024-03-23T15:15:42;10.30;83.30
16287;DHT22;8251;53.568;10.018;2024-03-23T15:18:10;10.40;83.60
16287;DHT22;8251;53.568;10.018;2024-03-23T15:20:38;10.40;83.80
16287;DHT22;8251;53.568;10.018;2024-03-23T15:23:05;10.30;84.10
16287;DHT22;8251;53.568;10.018;2024-03-23T15:25:34;10.30;84.30
16287;DHT22;8251;53.568;10.018;2024-03-23T15:28:00;10.30;84.80
16287;DHT22;8251;53.568;10.018;2024-03-23T15:30:28;10.40;84.20
16287;DHT22;8251;53.568;10.018;2024-03-23T15:32:54;10.50;82.90
16287;DHT22;8251;53.568;10.018;2024-03-23T15:35:21;10.40;83.70
16287;DHT22;8251;53.568;10.018;2024-03-23T15:37:50;10.70;82.90
16287;DHT22;8251;53.568;10.018;2024-03-23T15:40:18;10.70;82.90
16287;DHT22;8251;53.568;10.018;2024-03-23T15:42:44;10.80;82.50
16287;DHT22;8251;53.568;10.018;2024-03-23T15:45:11;10.70;81.30
16287;DHT22;8251;53.568;10.018;2024-03-23T15:47:41;10.70;81.80
16287;DHT22;8251;53.568;10.018;2024-03-23T15:50:09;10.70;82.50
16287;DHT22;8251;53.568;10.018;2024-03-23T15:52:35;10.70;82.90
16287;DHT22;8251;53.568;10.018;2024-03-23T15:55:03;10.80;82.50
16287;DHT22;8251;53.568;10.018;2024-03-23T15:57:34;10.70;82.20
16287;DHT22;8251;53.568;10.018;2024-03-23T16:00:01;10.60;82.70
16287;DHT22;8251;53.568;10.018;2024-03-23T16:02:28;10.50;83.10
16287;DHT22;8251;53.568;10.018;2024-03-23T16:04:55;10.50;84.30
16287;DHT22;8251;53.568;10.018;2024-03-23T16:07:22;10.40;85.00
16287;DHT22;8251;53.568;10.018;2024-03-23T16:09:49;10.40;84.80
16287;DHT22;8251;53.568;10.018;2024-03-23T16:12:15;10.50;84.80
16287;DHT22;8251;53.568;10.018;2024-03-23T16:14:44;10.50;84.40
16287;DHT22;8251;53.568;10.018;2024-03-23T16:17:10;10.50;83.50
16287;DHT22;8251;53.568;10.018;2024-03-23T16:19:37;10.50;82.70
16287;DHT22;8251;53.568;10.018;2024-03-23T16:22:03;10.40;83.60
16287;DHT22;8251;53.568;10.018;2024-03-23T16:24:30;10.40;85.20
16287;DHT22;8251;53.568;10.018;2024-03-23T16:26:56;10.30;85.10
16287;DHT22;8251;53.568;10.018;2024-03-23T16:29:23;10.20;85.20
16287;DHT22;8251;53.568;10.018;2024-03-23T16:31:50;10.20;85.80